sensor_id;sensor_type;location;lat;lon;timestamp;pressure;altitude;pressure_sealevel;temperature;humidity
54900;BME280;40801;41.924;25.562;2023-04-30T00:00:02;99241.34;;;14.25;53.12
54900;BME280;40801;41.924;25.562;2023-04-30T00:02:32;99244.63;;;14.31;52.89
54900;BME280;40801;41.924;25.562;2023-04-30T00:04:58;99242.81;;;14.23;53.84
54900;BME280;40801;41.924;25.562;2023-04-30T00:07:23;99244.94;;;14.17;54.09
54900;BME280;40801;41.924;25.562;2023-04-30T00:09:48;99238.50;;;14.22;53.86
54900;BME280;40801;41.924;25.562;2023-04-30T00:12:15;99242.25;;;14.30;53.56
54900;BME280;40801;41.924;25.562;2023-04-30T00:14:40;99237.75;;;14.34;53.11
54900;BME280;40801;41.924;25.562;2023-04-30T00:17:06;99235.78;;;14.22;53.55
54900;BME280;40801;41.924;25.562;2023-04-30T00:19:31;99233.22;;;14.25;53.49
54900;BME280;40801;41.924;25.562;2023-04-30T00:21:56;99227.66;;;14.22;54.07
54900;BME280;40801;41.924;25.562;2023-04-30T00:24:22;99229.13;;;14.19;54.07
54900;BME280;40801;41.924;25.562;2023-04-30T00:26:47;99232.34;;;14.13;54.75
54900;BME280;40801;41.924;25.562;2023-04-30T00:29:13;99238.88;;;14.12;54.95
54900;BME280;40801;41.924;25.562;2023-04-30T00:31:38;99237.75;;;14.13;54.65
54900;BME280;40801;41.924;25.562;2023-04-30T00:34:04;99240.81;;;14.11;54.88
54900;BME280;40801;41.924;25.562;2023-04-30T00:36:29;99247.50;;;14.14;54.80
54900;BME280;40801;41.924;25.562;2023-04-30T00:38:56;99239.00;;;14.15;54.70
54900;BME280;40801;41.924;25.562;2023-04-30T00:41:21;99237.75;;;14.13;54.94
54900;BME280;40801;41.924;25.562;2023-04-30T00:43:47;99236.50;;;14.10;55.45
54900;BME280;40801;41.924;25.562;2023-04-30T00:46:12;99240.22;;;14.06;55.16
54900;BME280;40801;41.924;25.562;2023-04-30T00:48:38;99248.03;;;14.07;54.96
54900;BME280;40801;41.924;25.562;2023-04-30T00:51:04;99254.19;;;13.95;55.79
54900;BME280;40801;41.924;25.562;2023-04-30T00:53:30;99252.41;;;14.00;55.34
54900;BME280;40801;41.924;25.562;2023-04-30T00:55:56;99244.59;;;13.98;54.87
54900;BME280;40801;41.924;25.562;2023-04-30T00:58:22;99245.00;;;13.88;54.72
54900;BME280;40801;41.924;25.562;2023-04-30T01:00:47;99236.53;;;13.89;54.61
54900;BME280;40801;41.924;25.562;2023-04-30T01:03:14;99237.16;;;13.86;54.93
54900;BME280;40801;41.924;25.562;2023-04-30T01:05:40;99231.16;;;13.81;55.37
54900;BME280;40801;41.924;25.562;2023-04-30T01:08:05;99233.66;;;13.86;55.26
54900;BME280;40801;41.924;25.562;2023-04-30T01:10:40;99236.84;;;13.88;55.90
54900;BME280;40801;41.924;25.562;2023-04-30T01:13:16;99234.16;;;13.88;55.78
54900;BME280;40801;41.924;25.562;2023-04-30T01:15:59;99231.44;;;13.88;56.18
54900;BME280;40801;41.924;25.562;2023-04-30T01:18:47;99234.78;;;13.85;56.69
54900;BME280;40801;41.924;25.562;2023-04-30T01:21:14;99229.38;;;13.85;55.50
54900;BME280;40801;41.924;25.562;2023-04-30T01:26:52;99228.97;;;13.74;56.39
54900;BME280;40801;41.924;25.562;2023-04-30T01:29:24;99231.22;;;13.72;55.50
54900;BME280;40801;41.924;25.562;2023-04-30T01:31:51;99230.41;;;13.72;55.38
54900;BME280;40801;41.924;25.562;2023-04-30T01:34:16;99230.50;;;13.63;56.29
54900;BME280;40801;41.924;25.562;2023-04-30T01:45:03;99244.31;;;13.41;57.97
54900;BME280;40801;41.924;25.562;2023-04-30T01:47:59;99240.19;;;13.35;57.94
54900;BME280;40801;41.924;25.562;2023-04-30T01:50:47;99233.84;;;13.30;56.90
54900;BME280;40801;41.924;25.562;2023-04-30T01:53:20;99238.63;;;13.33;56.44
54900;BME280;40801;41.924;25.562;2023-04-30T01:56:17;99235.94;;;13.25;58.33
54900;BME280;40801;41.924;25.562;2023-04-30T01:58:37;99237.38;;;13.14;57.97
54900;BME280;40801;41.924;25.562;2023-04-30T02:01:04;99229.13;;;13.10;58.52
54900;BME280;40801;41.924;25.562;2023-04-30T02:03:31;99234.09;;;12.99;59.23
54900;BME280;40801;41.924;25.562;2023-04-30T02:05:57;99230.94;;;12.89;60.26
54900;BME280;40801;41.924;25.562;2023-04-30T02:08:23;99224.13;;;12.83;60.85
54900;BME280;40801;41.924;25.562;2023-04-30T02:10:48;99224.44;;;12.81;61.33
54900;BME280;40801;41.924;25.562;2023-04-30T02:13:14;99222.53;;;12.82;61.86
54900;BME280;40801;41.924;25.562;2023-04-30T02:15:40;99223.47;;;12.86;61.69
54900;BME280;40801;41.924;25.562;2023-04-30T02:18:05;99229.69;;;12.86;62.07
54900;BME280;40801;41.924;25.562;2023-04-30T02:20:30;99225.53;;;12.89;62.02
54900;BME280;40801;41.924;25.562;2023-04-30T02:22:56;99229.19;;;12.93;61.17
54900;BME280;40801;41.924;25.562;2023-04-30T02:25:22;99219.59;;;12.95;61.34
54900;BME280;40801;41.924;25.562;2023-04-30T02:27:47;99227.06;;;12.98;60.48
54900;BME280;40801;41.924;25.562;2023-04-30T02:30:14;99216.44;;;13.02;59.91
54900;BME280;40801;41.924;25.562;2023-04-30T02:32:40;99223.59;;;12.98;60.10
54900;BME280;40801;41.924;25.562;2023-04-30T02:35:05;99220.41;;;12.96;60.22
54900;BME280;40801;41.924;25.562;2023-04-30T02:37:31;99232.03;;;12.96;59.99
54900;BME280;40801;41.924;25.562;2023-04-30T02:39:56;99229.31;;;12.96;60.99
54900;BME280;40801;41.924;25.562;2023-04-30T02:42:21;99236.03;;;12.90;61.48
54900;BME280;40801;41.924;25.562;2023-04-30T02:44:47;99231.09;;;12.92;61.48
54900;BME280;40801;41.924;25.562;2023-04-30T02:47:12;99223.59;;;12.98;61.09
54900;BME280;40801;41.924;25.562;2023-04-30T02:49:38;99228.53;;;12.96;61.28
54900;BME280;40801;41.924;25.562;2023-04-30T02:52:04;99229.19;;;12.93;61.60
54900;BME280;40801;41.924;25.562;2023-04-30T02:54:30;99237.63;;;12.91;62.29
54900;BME280;40801;41.924;25.562;2023-04-30T02:56:55;99232.22;;;12.91;62.36
54900;BME280;40801;41.924;25.562;2023-04-30T02:59:20;99226.28;;;12.98;61.24
54900;BME280;40801;41.924;25.562;2023-04-30T03:01:46;99236.31;;;13.06;60.69
54900;BME280;40801;41.924;25.562;2023-04-30T03:04:11;99233.47;;;13.02;60.68
54900;BME280;40801;41.924;25.562;2023-04-30T03:06:37;99230.44;;;13.04;60.47
54900;BME280;40801;41.924;25.562;2023-04-30T03:09:02;99233.59;;;13.06;60.12
54900;BME280;40801;41.924;25.562;2023-04-30T03:11:28;99238.09;;;13.02;60.07
54900;BME280;40801;41.924;25.562;2023-04-30T03:13:53;99237.59;;;13.00;59.99
54900;BME280;40801;41.924;25.562;2023-04-30T03:16:19;99241.25;;;12.95;60.07
54900;BME280;40801;41.924;25.562;2023-04-30T03:18:48;99238.88;;;12.94;60.09
54900;BME280;40801;41.924;25.562;2023-04-30T03:21:14;99231.88;;;12.93;59.47
54900;BME280;40801;41.924;25.562;2023-04-30T03:23:39;99233.31;;;12.90;59.68
54900;BME280;40801;41.924;25.562;2023-04-30T03:26:05;99228.72;;;12.91;59.63
54900;BME280;40801;41.924;25.562;2023-04-30T03:28:31;99237.47;;;12.88;60.03
54900;BME280;40801;41.924;25.562;2023-04-30T03:30:56;99238.31;;;12.80;60.05
54900;BME280;40801;41.924;25.562;2023-04-30T03:33:23;99238.44;;;12.83;60.23
54900;BME280;40801;41.924;25.562;2023-04-30T03:35:48;99239.25;;;12.84;60.26
54900;BME280;40801;41.924;25.562;2023-04-30T03:38:14;99243.53;;;12.85;60.12
54900;BME280;40801;41.924;25.562;2023-04-30T03:40:40;99240.84;;;12.85;60.09
54900;BME280;40801;41.924;25.562;2023-04-30T03:43:05;99248.63;;;12.86;60.43
54900;BME280;40801;41.924;25.562;2023-04-30T03:45:30;99246.06;;;12.90;60.34
54900;BME280;40801;41.924;25.562;2023-04-30T03:47:56;99252.41;;;12.94;59.73
54900;BME280;40801;41.924;25.562;2023-04-30T03:50:21;99252.75;;;12.92;60.00
54900;BME280;40801;41.924;25.562;2023-04-30T03:52:47;99256.38;;;12.96;60.21
54900;BME280;40801;41.924;25.562;2023-04-30T03:55:12;99260.22;;;13.04;59.58
54900;BME280;40801;41.924;25.562;2023-04-30T03:57:38;99264.50;;;12.96;60.16
54900;BME280;40801;41.924;25.562;2023-04-30T04:00:05;99266.88;;;12.98;60.36
54900;BME280;40801;41.924;25.562;2023-04-30T04:02:38;99266.22;;;13.10;59.76
54900;BME280;40801;41.924;25.562;2023-04-30T04:05:04;99267.84;;;13.02;60.00
54900;BME280;40801;41.924;25.562;2023-04-30T04:07:29;99262.13;;;13.03;59.98
54900;BME280;40801;41.924;25.562;2023-04-30T04:09:55;99265.16;;;13.02;59.99
54900;BME280;40801;41.924;25.562;2023-04-30T04:12:20;99261.63;;;13.10;59.45
54900;BME280;40801;41.924;25.562;2023-04-30T04:14:46;99260.03;;;13.09;59.55
54900;BME280;40801;41.924;25.562;2023-04-30T04:17:11;99261.75;;;13.14;59.24
54900;BME280;40801;41.924;25.562;2023-04-30T04:19:38;99272.44;;;13.10;59.80
54900;BME280;40801;41.924;25.562;2023-04-30T04:22:03;99275.81;;;13.07;60.00
54900;BME280;40801;41.924;25.562;2023-04-30T04:24:29;99282.81;;;13.08;60.15
54900;BME280;40801;41.924;25.562;2023-04-30T04:26:54;99273.41;;;13.06;60.39
54900;BME280;40801;41.924;25.562;2023-04-30T04:29:20;99290.13;;;13.08;60.30
54900;BME280;40801;41.924;25.562;2023-04-30T04:31:45;99286.44;;;13.12;60.37
54900;BME280;40801;41.924;25.562;2023-04-30T04:34:13;99295.81;;;13.32;59.84
54900;BME280;40801;41.924;25.562;2023-04-30T04:36:38;99290.88;;;13.34;58.98
54900;BME280;40801;41.924;25.562;2023-04-30T04:39:04;99289.56;;;13.40;59.10
54900;BME280;40801;41.924;25.562;2023-04-30T04:41:30;99298.34;;;13.37;59.16
54900;BME280;40801;41.924;25.562;2023-04-30T04:44:00;99300.88;;;13.42;58.86
54900;BME280;40801;41.924;25.562;2023-04-30T04:46:26;99302.44;;;13.43;59.25
54900;BME280;40801;41.924;25.562;2023-04-30T04:48:52;99293.00;;;13.49;58.79
54900;BME280;40801;41.924;25.562;2023-04-30T04:51:18;99285.81;;;13.53;58.59
54900;BME280;40801;41.924;25.562;2023-04-30T04:53:43;99303.06;;;13.49;58.99
54900;BME280;40801;41.924;25.562;2023-04-30T04:56:09;99298.44;;;13.49;58.91
54900;BME280;40801;41.924;25.562;2023-04-30T04:58:35;99299.78;;;13.35;59.55
54900;BME280;40801;41.924;25.562;2023-04-30T05:01:00;99305.44;;;13.50;59.63
54900;BME280;40801;41.924;25.562;2023-04-30T05:03:29;99306.03;;;13.64;59.36
54900;BME280;40801;41.924;25.562;2023-04-30T05:05:55;99310.78;;;13.68;59.90
54900;BME280;40801;41.924;25.562;2023-04-30T05:08:20;99308.22;;;13.71;59.94
54900;BME280;40801;41.924;25.562;2023-04-30T05:10:46;99306.69;;;13.91;59.17
54900;BME280;40801;41.924;25.562;2023-04-30T05:13:11;99306.94;;;13.98;58.62
54900;BME280;40801;41.924;25.562;2023-04-30T05:15:36;99303.50;;;14.10;58.21
54900;BME280;40801;41.924;25.562;2023-04-30T05:18:02;99307.47;;;14.12;58.35
54900;BME280;40801;41.924;25.562;2023-04-30T05:20:28;99319.41;;;14.20;58.09
54900;BME280;40801;41.924;25.562;2023-04-30T05:22:53;99312.00;;;14.29;57.90
54900;BME280;40801;41.924;25.562;2023-04-30T05:25:19;99311.47;;;14.36;57.76
54900;BME280;40801;41.924;25.562;2023-04-30T05:27:44;99310.63;;;14.44;58.15
54900;BME280;40801;41.924;25.562;2023-04-30T05:30:10;99311.94;;;14.59;57.97
54900;BME280;40801;41.924;25.562;2023-04-30T05:32:36;99310.72;;;14.68;57.74
54900;BME280;40801;41.924;25.562;2023-04-30T05:35:01;99314.63;;;14.79;58.14
54900;BME280;40801;41.924;25.562;2023-04-30T05:37:26;99317.03;;;14.93;57.49
54900;BME280;40801;41.924;25.562;2023-04-30T05:39:52;99327.34;;;14.87;57.60
54900;BME280;40801;41.924;25.562;2023-04-30T05:42:19;99323.09;;;15.11;57.53
54900;BME280;40801;41.924;25.562;2023-04-30T05:44:44;99316.66;;;15.28;57.09
54900;BME280;40801;41.924;25.562;2023-04-30T05:47:10;99319.66;;;15.35;56.92
54900;BME280;40801;41.924;25.562;2023-04-30T05:49:35;99314.34;;;15.38;57.01
54900;BME280;40801;41.924;25.562;2023-04-30T05:52:01;99317.50;;;15.53;56.86
54900;BME280;40801;41.924;25.562;2023-04-30T05:54:28;99322.53;;;15.75;56.43
54900;BME280;40801;41.924;25.562;2023-04-30T05:56:54;99324.00;;;15.97;55.21
54900;BME280;40801;41.924;25.562;2023-04-30T05:59:19;99323.63;;;16.10;54.94
54900;BME280;40801;41.924;25.562;2023-04-30T06:01:44;99319.63;;;16.32;53.89
54900;BME280;40801;41.924;25.562;2023-04-30T06:04:10;99321.78;;;16.27;54.06
54900;BME280;40801;41.924;25.562;2023-04-30T06:06:36;99323.34;;;16.40;52.99
54900;BME280;40801;41.924;25.562;2023-04-30T06:09:01;99330.34;;;16.41;52.30
54900;BME280;40801;41.924;25.562;2023-04-30T06:11:27;99325.34;;;16.55;52.36
54900;BME280;40801;41.924;25.562;2023-04-30T06:13:53;99321.59;;;16.48;52.67
54900;BME280;40801;41.924;25.562;2023-04-30T06:16:19;99320.97;;;16.38;52.71
54900;BME280;40801;41.924;25.562;2023-04-30T06:18:44;99325.06;;;16.32;52.62
54900;BME280;40801;41.924;25.562;2023-04-30T06:21:10;99326.75;;;16.37;52.47
54900;BME280;40801;41.924;25.562;2023-04-30T06:23:35;99327.38;;;16.58;51.96
54900;BME280;40801;41.924;25.562;2023-04-30T06:26:02;99324.53;;;16.67;51.80
54900;BME280;40801;41.924;25.562;2023-04-30T06:28:27;99322.22;;;16.81;51.37
54900;BME280;40801;41.924;25.562;2023-04-30T06:30:53;99327.06;;;16.88;50.76
54900;BME280;40801;41.924;25.562;2023-04-30T06:33:19;99329.16;;;16.94;50.35
54900;BME280;40801;41.924;25.562;2023-04-30T06:35:45;99321.88;;;16.98;50.08
54900;BME280;40801;41.924;25.562;2023-04-30T06:38:10;99329.78;;;16.88;50.56
54900;BME280;40801;41.924;25.562;2023-04-30T06:40:36;99329.06;;;16.91;50.84
54900;BME280;40801;41.924;25.562;2023-04-30T06:43:01;99321.00;;;16.94;50.62
54900;BME280;40801;41.924;25.562;2023-04-30T06:45:27;99325.81;;;16.85;50.71
54900;BME280;40801;41.924;25.562;2023-04-30T06:47:53;99320.31;;;16.97;50.74
54900;BME280;40801;41.924;25.562;2023-04-30T06:50:18;99326.19;;;16.99;50.99
54900;BME280;40801;41.924;25.562;2023-04-30T06:52:45;99329.41;;;17.33;50.58
54900;BME280;40801;41.924;25.562;2023-04-30T06:55:11;99319.28;;;17.33;50.73
54900;BME280;40801;41.924;25.562;2023-04-30T06:57:36;99326.16;;;17.90;50.38
54900;BME280;40801;41.924;25.562;2023-04-30T07:00:05;99325.69;;;18.58;49.23
54900;BME280;40801;41.924;25.562;2023-04-30T07:02:31;99321.75;;;18.95;48.58
54900;BME280;40801;41.924;25.562;2023-04-30T07:04:57;99324.59;;;19.44;47.55
54900;BME280;40801;41.924;25.562;2023-04-30T07:07:22;99313.63;;;19.90;46.00
54900;BME280;40801;41.924;25.562;2023-04-30T07:09:47;99327.34;;;19.93;44.12
54900;BME280;40801;41.924;25.562;2023-04-30T07:12:13;99326.44;;;20.38;42.91
54900;BME280;40801;41.924;25.562;2023-04-30T07:14:38;99325.41;;;20.80;42.42
54900;BME280;40801;41.924;25.562;2023-04-30T07:17:04;99320.88;;;20.95;40.94
54900;BME280;40801;41.924;25.562;2023-04-30T07:19:30;99325.50;;;21.24;40.31
54900;BME280;40801;41.924;25.562;2023-04-30T07:21:56;99319.22;;;21.68;38.85
54900;BME280;40801;41.924;25.562;2023-04-30T07:24:22;99317.22;;;21.65;38.94
54900;BME280;40801;41.924;25.562;2023-04-30T07:26:47;99306.13;;;22.02;38.09
54900;BME280;40801;41.924;25.562;2023-04-30T07:29:12;99309.38;;;22.15;38.51
54900;BME280;40801;41.924;25.562;2023-04-30T07:31:38;99311.09;;;22.48;37.88
54900;BME280;40801;41.924;25.562;2023-04-30T07:34:03;99315.13;;;22.72;37.64
54900;BME280;40801;41.924;25.562;2023-04-30T07:36:29;99311.72;;;23.00;36.54
54900;BME280;40801;41.924;25.562;2023-04-30T07:38:55;99305.84;;;23.19;36.56
54900;BME280;40801;41.924;25.562;2023-04-30T07:41:20;99308.63;;;23.44;36.52
54900;BME280;40801;41.924;25.562;2023-04-30T07:43:46;99310.22;;;23.73;35.71
54900;BME280;40801;41.924;25.562;2023-04-30T07:46:11;99318.09;;;23.82;35.21
54900;BME280;40801;41.924;25.562;2023-04-30T07:48:36;99313.38;;;23.58;34.62
54900;BME280;40801;41.924;25.562;2023-04-30T07:51:02;99313.31;;;23.40;34.32
54900;BME280;40801;41.924;25.562;2023-04-30T07:53:29;99307.03;;;23.36;34.82
54900;BME280;40801;41.924;25.562;2023-04-30T07:55:54;99316.88;;;23.90;34.71
54900;BME280;40801;41.924;25.562;2023-04-30T07:58:20;99305.41;;;24.34;34.45
54900;BME280;40801;41.924;25.562;2023-04-30T08:00:45;99302.19;;;24.50;34.14
54900;BME280;40801;41.924;25.562;2023-04-30T08:03:11;99305.31;;;24.52;34.34
54900;BME280;40801;41.924;25.562;2023-04-30T08:05:37;99305.50;;;25.04;33.39
54900;BME280;40801;41.924;25.562;2023-04-30T08:08:02;99305.88;;;25.06;33.68
54900;BME280;40801;41.924;25.562;2023-04-30T08:10:28;99306.56;;;25.24;33.54
54900;BME280;40801;41.924;25.562;2023-04-30T08:12:53;99298.97;;;25.36;32.84
54900;BME280;40801;41.924;25.562;2023-04-30T08:15:19;99301.81;;;25.73;32.42
54900;BME280;40801;41.924;25.562;2023-04-30T08:17:50;99296.53;;;26.27;30.82
54900;BME280;40801;41.924;25.562;2023-04-30T08:20:16;99299.81;;;26.83;31.22
54900;BME280;40801;41.924;25.562;2023-04-30T08:22:42;99295.97;;;26.77;31.12
54900;BME280;40801;41.924;25.562;2023-04-30T08:25:10;99298.16;;;26.62;29.83
54900;BME280;40801;41.924;25.562;2023-04-30T08:27:36;99297.53;;;26.78;29.82
54900;BME280;40801;41.924;25.562;2023-04-30T08:30:02;99297.38;;;27.19;28.51
54900;BME280;40801;41.924;25.562;2023-04-30T08:32:27;99289.50;;;27.41;28.36
54900;BME280;40801;41.924;25.562;2023-04-30T08:34:53;99300.06;;;27.50;27.67
54900;BME280;40801;41.924;25.562;2023-04-30T08:37:19;99299.56;;;27.55;27.73
54900;BME280;40801;41.924;25.562;2023-04-30T08:39:44;99287.09;;;27.90;27.43
54900;BME280;40801;41.924;25.562;2023-04-30T08:42:13;99284.47;;;28.46;25.70
54900;BME280;40801;41.924;25.562;2023-04-30T08:44:39;99288.19;;;27.96;26.02
54900;BME280;40801;41.924;25.562;2023-04-30T08:47:09;99282.91;;;27.82;26.91
54900;BME280;40801;41.924;25.562;2023-04-30T08:49:37;99284.69;;;27.92;27.01
54900;BME280;40801;41.924;25.562;2023-04-30T08:52:03;99275.00;;;28.43;27.00
54900;BME280;40801;41.924;25.562;2023-04-30T08:54:32;99275.94;;;28.36;25.92
54900;BME280;40801;41.924;25.562;2023-04-30T08:56:59;99277.66;;;28.86;26.14
54900;BME280;40801;41.924;25.562;2023-04-30T08:59:25;99273.63;;;29.40;26.03
54900;BME280;40801;41.924;25.562;2023-04-30T09:01:51;99273.38;;;29.18;25.09
54900;BME280;40801;41.924;25.562;2023-04-30T09:04:16;99282.31;;;29.74;24.06
54900;BME280;40801;41.924;25.562;2023-04-30T09:06:42;99277.34;;;29.01;25.04
54900;BME280;40801;41.924;25.562;2023-04-30T09:09:12;99270.78;;;29.27;24.24
54900;BME280;40801;41.924;25.562;2023-04-30T09:11:38;99269.53;;;28.95;25.34
54900;BME280;40801;41.924;25.562;2023-04-30T09:14:03;99265.56;;;29.45;25.03
54900;BME280;40801;41.924;25.562;2023-04-30T09:16:44;99263.06;;;28.82;24.23
54900;BME280;40801;41.924;25.562;2023-04-30T09:19:22;99268.97;;;29.53;23.46
54900;BME280;40801;41.924;25.562;2023-04-30T09:21:47;99265.72;;;29.71;24.93
54900;BME280;40801;41.924;25.562;2023-04-30T09:24:13;99255.41;;;30.00;24.58
54900;BME280;40801;41.924;25.562;2023-04-30T09:26:38;99250.06;;;30.35;23.96
54900;BME280;40801;41.924;25.562;2023-04-30T09:29:04;99249.91;;;29.84;24.25
54900;BME280;40801;41.924;25.562;2023-04-30T09:31:35;99242.31;;;30.42;23.33
54900;BME280;40801;41.924;25.562;2023-04-30T09:34:01;99241.06;;;30.02;23.76
54900;BME280;40801;41.924;25.562;2023-04-30T09:36:26;99248.03;;;28.99;24.41
54900;BME280;40801;41.924;25.562;2023-04-30T09:38:52;99242.81;;;29.02;24.97
54900;BME280;40801;41.924;25.562;2023-04-30T09:41:22;99245.84;;;29.40;24.87
54900;BME280;40801;41.924;25.562;2023-04-30T09:43:48;99238.75;;;29.06;25.31
54900;BME280;40801;41.924;25.562;2023-04-30T09:46:13;99232.72;;;28.55;25.58
54900;BME280;40801;41.924;25.562;2023-04-30T09:48:43;99229.00;;;28.62;25.24
54900;BME280;40801;41.924;25.562;2023-04-30T09:51:09;99233.53;;;28.16;25.87
54900;BME280;40801;41.924;25.562;2023-04-30T09:53:41;99232.94;;;27.85;26.35
54900;BME280;40801;41.924;25.562;2023-04-30T09:56:08;99233.22;;;27.91;26.22
54900;BME280;40801;41.924;25.562;2023-04-30T09:58:37;99226.38;;;28.38;26.49
54900;BME280;40801;41.924;25.562;2023-04-30T10:01:07;99233.97;;;28.15;26.17
54900;BME280;40801;41.924;25.562;2023-04-30T10:03:33;99225.59;;;28.38;25.64
54900;BME280;40801;41.924;25.562;2023-04-30T10:05:59;99216.88;;;29.08;24.19
54900;BME280;40801;41.924;25.562;2023-04-30T10:08:28;99214.16;;;28.88;24.06
54900;BME280;40801;41.924;25.562;2023-04-30T10:10:58;99224.59;;;28.08;24.77
54900;BME280;40801;41.924;25.562;2023-04-30T10:13:32;99221.66;;;27.76;25.51
54900;BME280;40801;41.924;25.562;2023-04-30T10:16:25;99210.50;;;28.19;24.91
54900;BME280;40801;41.924;25.562;2023-04-30T10:18:50;99208.88;;;29.10;24.26
54900;BME280;40801;41.924;25.562;2023-04-30T10:21:17;99206.78;;;29.92;23.39
54900;BME280;40801;41.924;25.562;2023-04-30T10:23:45;99198.63;;;29.40;23.79
54900;BME280;40801;41.924;25.562;2023-04-30T10:26:11;99199.47;;;30.40;23.51
54900;BME280;40801;41.924;25.562;2023-04-30T10:28:37;99199.69;;;30.45;22.46
54900;BME280;40801;41.924;25.562;2023-04-30T10:31:05;99205.63;;;30.98;21.82
54900;BME280;40801;41.924;25.562;2023-04-30T10:33:43;99193.81;;;30.81;21.10
54900;BME280;40801;41.924;25.562;2023-04-30T10:36:21;99191.47;;;30.93;21.74
54900;BME280;40801;41.924;25.562;2023-04-30T10:38:47;99189.31;;;31.22;21.76
54900;BME280;40801;41.924;25.562;2023-04-30T10:41:13;99191.75;;;31.33;21.67
54900;BME280;40801;41.924;25.562;2023-04-30T10:43:39;99188.28;;;31.41;21.03
54900;BME280;40801;41.924;25.562;2023-04-30T10:46:07;99190.28;;;31.97;20.95
54900;BME280;40801;41.924;25.562;2023-04-30T10:48:33;99183.00;;;31.56;21.47
54900;BME280;40801;41.924;25.562;2023-04-30T10:51:00;99181.78;;;31.79;21.11
54900;BME280;40801;41.924;25.562;2023-04-30T10:53:29;99175.41;;;32.44;20.17
54900;BME280;40801;41.924;25.562;2023-04-30T10:56:03;99180.38;;;31.74;20.88
54900;BME280;40801;41.924;25.562;2023-04-30T10:58:35;99172.28;;;31.89;20.83
54900;BME280;40801;41.924;25.562;2023-04-30T11:03:35;99170.97;;;33.05;19.89
54900;BME280;40801;41.924;25.562;2023-04-30T11:06:10;99170.50;;;33.16;19.60
54900;BME280;40801;41.924;25.562;2023-04-30T11:08:37;99170.31;;;32.52;19.92
54900;BME280;40801;41.924;25.562;2023-04-30T11:11:03;99166.41;;;32.40;20.10
54900;BME280;40801;41.924;25.562;2023-04-30T11:13:59;99168.44;;;31.96;20.37
54900;BME280;40801;41.924;25.562;2023-04-30T11:16:33;99171.31;;;31.70;19.76
54900;BME280;40801;41.924;25.562;2023-04-30T11:19:06;99166.25;;;31.09;21.22
54900;BME280;40801;41.924;25.562;2023-04-30T11:21:33;99159.75;;;30.77;21.16
54900;BME280;40801;41.924;25.562;2023-04-30T11:24:05;99155.91;;;30.08;20.85
54900;BME280;40801;41.924;25.562;2023-04-30T11:27:03;99148.88;;;30.03;21.43
54900;BME280;40801;41.924;25.562;2023-04-30T11:29:30;99150.72;;;29.94;21.63
54900;BME280;40801;41.924;25.562;2023-04-30T11:31:59;99151.72;;;30.41;21.24
54900;BME280;40801;41.924;25.562;2023-04-30T11:34:25;99153.84;;;30.63;20.85
54900;BME280;40801;41.924;25.562;2023-04-30T11:36:53;99164.47;;;30.13;21.10
54900;BME280;40801;41.924;25.562;2023-04-30T11:39:23;99152.72;;;29.19;22.27
54900;BME280;40801;41.924;25.562;2023-04-30T11:41:49;99160.44;;;28.62;22.88
54900;BME280;40801;41.924;25.562;2023-04-30T11:44:25;99159.00;;;28.18;22.58
54900;BME280;40801;41.924;25.562;2023-04-30T11:46:50;99157.38;;;28.21;23.38
54900;BME280;40801;41.924;25.562;2023-04-30T11:49:16;99154.41;;;28.12;22.98
54900;BME280;40801;41.924;25.562;2023-04-30T11:51:41;99151.16;;;28.69;23.42
54900;BME280;40801;41.924;25.562;2023-04-30T11:54:07;99156.94;;;29.98;22.64
54900;BME280;40801;41.924;25.562;2023-04-30T11:56:36;99150.84;;;30.70;21.93
54900;BME280;40801;41.924;25.562;2023-04-30T11:59:09;99133.56;;;30.75;21.43
54900;BME280;40801;41.924;25.562;2023-04-30T12:01:35;99142.34;;;30.86;21.11
54900;BME280;40801;41.924;25.562;2023-04-30T12:04:01;99144.81;;;30.84;21.02
54900;BME280;40801;41.924;25.562;2023-04-30T12:06:28;99136.28;;;30.66;20.59
54900;BME280;40801;41.924;25.562;2023-04-30T12:08:56;99138.16;;;29.89;21.12
54900;BME280;40801;41.924;25.562;2023-04-30T12:11:24;99133.72;;;29.17;21.67
54900;BME280;40801;41.924;25.562;2023-04-30T12:13:54;99142.53;;;29.45;22.30
54900;BME280;40801;41.924;25.562;2023-04-30T12:16:20;99134.41;;;29.67;21.38
54900;BME280;40801;41.924;25.562;2023-04-30T12:18:46;99130.09;;;30.07;21.53
54900;BME280;40801;41.924;25.562;2023-04-30T12:21:12;99126.94;;;29.64;21.49
54900;BME280;40801;41.924;25.562;2023-04-30T12:23:38;99116.66;;;29.03;21.86
54900;BME280;40801;41.924;25.562;2023-04-30T12:26:04;99130.50;;;28.54;22.69
54900;BME280;40801;41.924;25.562;2023-04-30T12:28:29;99120.78;;;28.46;23.23
54900;BME280;40801;41.924;25.562;2023-04-30T12:30:55;99120.81;;;28.78;22.43
54900;BME280;40801;41.924;25.562;2023-04-30T12:33:20;99123.34;;;29.05;22.79
54900;BME280;40801;41.924;25.562;2023-04-30T12:35:45;99131.66;;;29.05;23.00
54900;BME280;40801;41.924;25.562;2023-04-30T12:38:15;99119.56;;;29.28;22.63
54900;BME280;40801;41.924;25.562;2023-04-30T12:40:45;99113.81;;;29.35;23.23
54900;BME280;40801;41.924;25.562;2023-04-30T12:43:14;99113.09;;;28.86;23.63
54900;BME280;40801;41.924;25.562;2023-04-30T12:48:12;99107.63;;;28.50;24.11
54900;BME280;40801;41.924;25.562;2023-04-30T12:50:37;99113.22;;;28.30;24.24
54900;BME280;40801;41.924;25.562;2023-04-30T12:53:06;99114.06;;;28.63;24.12
54900;BME280;40801;41.924;25.562;2023-04-30T12:55:32;99112.63;;;28.55;23.85
54900;BME280;40801;41.924;25.562;2023-04-30T12:58:16;99112.72;;;28.35;24.14
54900;BME280;40801;41.924;25.562;2023-04-30T13:03:13;99108.75;;;28.16;24.33
54900;BME280;40801;41.924;25.562;2023-04-30T13:05:50;99099.50;;;27.87;24.22
54900;BME280;40801;41.924;25.562;2023-04-30T13:08:17;99108.81;;;27.33;24.75